Tiempo atmosférico en la estación meteorológica de A Pobra de Trives, Ourense (840 m.)



Fecha
DESCASC
Temp. máxima en grados centígrados (hora)
DESCASC
Temp. mínima en grados centígrados (hora)
DESCASC
Temp. media en grados centígrados
DESCASC
Racha de viento máxima en m/sg (hora)
DESCASC
Velocidad máxima media en intervalos de 10 minutos(hora)
DESCASC
Precipitaciones diarias en mm
DESCASC
Precipitaciones de 00:00 a 06:00 en mm
DESCASC
Precipitaciones de 06:00 a 12:00 en mm
DESCASC
Precipitaciones de 12:00 a 18:00 en mm
DESCASC
Precipitaciones de 18:00 a 24:00 en mm
DESCASC
20-10-2019 10.6 (14:20) 5.6 (02:40) 8.1 10.28 (00:50) 3.89 (00:10) 8 5.8 0.4 1.4 0.4
19-10-2019 11 (00:00) 6.8 (23:59) 8.9 8.33 (23:00) 3.06 (23:00) 41.8 3 20.6 16 2.2
18-10-2019 14.6 (15:50) 8.5 (04:40) 11.6 9.17 (15:40) 4.44 (15:40) 0.2 0.2 0 0 0
17-10-2019 18 (14:30) 10.6 (00:00) 14.3 11.67 (12:00) 4.72 (11:20) 3.4 2.6 0.2 0 0.6
16-10-2019 17 (15:00) 9.3 (00:00) 13.2 12.5 (12:40) 3.89 (12:40) 8.4 0 0 0 8.4
15-10-2019 12.6 (13:10) 5.5 (00:00) 9.1 8.89 (21:50) 3.89 (16:00) 0.6 0.2 0.2 0.2 0
14-10-2019 13.6 (02:10) 5.9 (00:00) 9.8 16.67 (17:20) 5.56 (17:20) 28 16.4 5.6 5 1
13-10-2019 15.1 (15:00) 12.1 (00:00) 13.6 10.83 (00:40) 4.72 (00:40) 7.6 0 2.6 4.6 0.4
12-10-2019 24.3 (16:10) 11.3 (00:00) 17.8 15.28 (23:00) 6.11 (22:30) 0 0 0 0 0
11-10-2019 25.1 (14:30) 7.7 (08:40) 16.4 11.11 (15:20) 5 (15:00) 0 0 0 0 0
10-10-2019 21.1 (17:10) 3.6 (00:00) 12.4 5.28 (00:20) 2.78 (03:00) 0 0 0 0 0
09-10-2019 17 (14:40) 6.4 (00:00) 11.7 8.61 (16:00) 3.61 (16:00) 0.2 0 0 0.2 0
08-10-2019 22.5 (14:10) 10.7 (00:00) 16.6 7.78 (23:10) 2.78 (15:30) -- -- 0 0 0.4
07-10-2019 25.1 (15:30) 7.2 (00:00) 16.2 7.5 (17:30) 3.33 (22:10) -- -- -- -- --
06-10-2019 21.9 (15:30) 8.4 (00:00) 15.1 7.22 (15:10) 3.61 (18:20) -- -- -- -- --
05-10-2019 19.3 (16:50) 7.4 (06:40) 13.3 8.33 (17:40) 3.89 (17:50) -- -- -- -- --
04-10-2019 18.6 (15:10) 11.4 (00:00) 15 7.5 (18:40) 3.06 (15:20) -- -- -- -- --
03-10-2019 21.6 (14:30) 6.3 (00:00) 14 9.17 (14:50) 3.61 (16:40) -- -- -- -- --
02-10-2019 18.4 (17:00) 9 (00:00) 13.7 6.67 (16:50) 3.33 (17:00) -- -- -- -- --
01-10-2019 19 (16:00) 9.9 (00:00) 14.4 9.17 (12:40) 3.89 (15:10) -- -- -- -- --
30-09-2019 25.8 (16:20) 12.5 (00:00) 19.1 8.61 (16:50) 3.89 (17:00) 0 0 0 0 0
29-09-2019 25.1 (15:10) 7.8 (00:00) 16.5 9.72 (15:20) 4.17 (15:20) 0 0 0 0 0
28-09-2019 23.8 (17:40) 6.7 (00:00) 15.2 5.28 (22:30) 3.06 (22:40) 0 0 0 0 0
27-09-2019 19.3 (17:10) 7.2 (00:00) 13.2 8.89 (17:50) 3.89 (17:40) 0 0 0 0 0
26-09-2019 21.9 (15:40) 7.1 (00:00) 14.5 8.61 (17:20) 3.89 (20:20) 0 0 0 0 0
25-09-2019 17.9 (13:20) 10 (00:00) 13.9 7.78 (14:30) 3.33 (13:00) 0 0 0 0 0
24-09-2019 20.1 (15:40) 10.1 (00:00) 15.1 13.33 (18:10) 5.56 (18:00) 0 0 0 0 0
23-09-2019 17.8 (18:00) 7.9 (00:00) 12.8 5.83 (23:59) 2.5 (12:40) 0 0 0 0 0
22-09-2019 19.5 (15:00) 9.2 (00:00) 14.3 9.44 (03:10) 3.89 (12:40) 0 0 0 0 0

Gráficas

Temp. máximas Temp. mínimas Temp. medias Precipitaciones Rachas de viento máximas Velocidades máximas media en intervalos de 10 minutos

Datos horarios

Fecha y hora oficial Temperatura (ºC) Velocidad del viento (km/h) Dirección del viento Racha (km/h) Dirección de racha Precipitación (mm) Presión (hPa) Tendencia (hPa) Humedad (%)
2019-10-21 23:00:00 5.2 3 Este 8 Sur 0 922.1 0.6 91
2019-10-21 22:00:00 6.1 3 Nordeste 5 Nordeste 0.2 921.9 1.2 93
2019-10-21 21:00:00 6.5 3 Nordeste 10 Este 3 922 1.8 91
2019-10-21 20:00:00 7 5 Sur 21 Sudoeste 2 921.5 1.2 86
2019-10-21 19:00:00 8.4 5 Sudoeste 8 Oeste 0 920.7 0.2 83
2019-10-21 18:00:00 9.3 3 Este 9 Este 0 920.2 -0.8 77
2019-10-21 17:00:00 11.2 4 Noroeste 14 Oeste 0 920.3 -1 62
2019-10-21 16:00:00 10.6 4 Noroeste 11 Oeste 0 920.5 -1.4 69
2019-10-21 15:00:00 10.5 3 Sur 12 Sudeste 0 921 -0.8 72
2019-10-21 14:00:00 11.4 8 Este 15 Este 0 921.3 -0.4 72
2019-10-21 13:00:00 9.3 4 Oeste 14 Oeste 0 921.9 0.3 83
2019-10-21 12:00:00 8.1 4 Oeste 8 Noroeste 0 921.8 0.7 90
2019-10-21 11:00:00 6.7 3 Norte 6 Norte 0 921.7 0.7 94
2019-10-21 10:00:00 5.8 2 Norte 10 Noroeste 0 921.6 0.8 95
2019-10-21 09:00:00 5.3 4 Noroeste 9 Noroeste 0 921.1 0.7 96
2019-10-21 08:00:00 5.2 5 Noroeste 10 Oeste 0 921 0.5 96
2019-10-21 07:00:00 5.1 5 Oeste 14 Oeste 0 920.8 -0.1 96
2019-10-21 06:00:00 4.1 6 Noroeste 13 Noroeste 0 920.4 -0.3 95
2019-10-21 05:00:00 4.9 3 Oeste 7 Sudoeste 0 920.5 0 95
2019-10-21 04:00:00 5 4 Noroeste 9 Oeste 0 920.9 0.6 95
2019-10-21 03:00:00 5.9 4 Oeste 10 Oeste 0 920.7 0.4 95
2019-10-21 02:00:00 5.6 5 Oeste 11 Oeste 0 920.5 0.3 96
2019-10-21 01:00:00 5.6 6 Oeste 13 Oeste 0 920.3 0.6 95
2019-10-21 00:00:00 6.1 5 Oeste 17 Sudoeste 0.2 920.3 1 95
2019-10-20 23:00:00 6.2 5 Oeste 13 Oeste 0 920.2 1.4 94
2019-10-20 22:00:00 6.4 8 Oeste 17 Oeste 0 919.7 1.6 94
2019-10-20 21:00:00 6.3 8 Oeste 16 Oeste 0 919.3 1.5 92
2019-10-20 20:00:00 7 8 Oeste 16 Oeste 0 918.8 1.7 92
2019-10-20 19:00:00 7.4 7 Oeste 19 Oeste 0.2 918.1 1.7 91
2019-10-20 18:00:00 8.2 8 Oeste 17 Oeste 0 917.8 1.3 90
2019-10-20 17:00:00 8.6 6 Oeste 21 Oeste 1 917.1 0.7 88
2019-10-20 16:00:00 10.2 6 Noroeste 24 Oeste 0.4 916.4 0.2 76
2019-10-20 15:00:00 9.9 10 Oeste 24 Oeste 0 916.5 0.2 81
2019-10-20 14:00:00 10.4 8 Oeste 21 Oeste 0 916.4 0.5 81
2019-10-20 13:00:00 8.9 9 Oeste 21 Noroeste 0 916.2 1.3 87
2019-10-20 12:00:00 8.1 7 Oeste 23 Noroeste 0 916.3 2.3 89
2019-10-20 11:00:00 7.1 5 Oeste 18 Oeste 0 915.9 2.5 94
2019-10-20 10:00:00 6.7 9 Noroeste 23 Norte 0 914.9 2 94
2019-10-20 09:00:00 6.4 6 Oeste 17 Noroeste 0.2 914 1.5 95
2019-10-20 08:00:00 6.1 6 Oeste 19 Oeste 0 913.4 1.4 95
2019-10-20 07:00:00 6.1 8 Oeste 17 Oeste 0.2 912.9 1.1 95
2019-10-20 06:00:00 5.8 6 Oeste 18 Oeste 0.2 912.5 1 95
2019-10-20 05:00:00 5.7 7 Oeste 19 Oeste 0 912 0.9 95
2019-10-20 04:00:00 5.6 8 Oeste 24 Oeste 1 911.8 1.1 94
2019-10-20 03:00:00 5.6 11 Oeste 28 Oeste 2 911.5 1.6 94
2019-10-20 02:00:00 5.9 14 Oeste 31 Oeste 1.6 911.1 1.8 93
2019-10-20 01:00:00 6.4 11 Oeste 37 Oeste 1 910.7 1.9 93
2019-10-20 00:00:00 6.8 10 Oeste 27 Oeste 1.2 909.9 1.4 94
2019-10-19 23:00:00 7.1 11 Oeste 30 Oeste 0.2 909.3 1.3 94
2019-10-19 22:00:00 7.6 7 Noroeste 19 Oeste 0.8 908.8 1.2 94
2019-10-19 21:00:00 7.9 7 Oeste 15 Noroeste 0 908.5 1 94
2019-10-19 20:00:00 8.2 4 Oeste 10 Noroeste 0 908 0.1 94
2019-10-19 19:00:00 8.2 7 Nordeste 14 Sudeste 0 907.6 -1 95
2019-10-19 18:00:00 8.5 6 Sudeste 15 Sudeste 0.4 907.5 -1.8 94
2019-10-19 17:00:00 8.4 7 Este 16 Sudeste 0.2 907.9 -2.6 95
2019-10-19 16:00:00 7.7 5 Norte 13 Este 5.4 908.6 -2.1 94
2019-10-19 15:00:00 8.7 5 Noroeste 10 Norte 6 909.3 -1.7 94
2019-10-19 14:00:00 9.5 3 Noroeste 13 Este 2.4 910.5 -1 94
2019-10-19 13:00:00 10 2 Noroeste 4 Norte 1.6 910.7 -0.7 94
2019-10-19 12:00:00 9.6 2 Nordeste 10 Noroeste 2.4 911 -0.4 95
2019-10-19 11:00:00 9.4 7 Oeste 19 Oeste 2.8 911.5 -0.3 95
2019-10-19 10:00:00 9.8 7 Oeste 13 Oeste 2.2 911.4 -0.8 95
2019-10-19 09:00:00 9.9 4 Oeste 9 Oeste 4.8 911.4 -1.1 96
2019-10-19 08:00:00 10 4 Este 8 Este 5 911.8 -1.3 96
2019-10-19 07:00:00 10.1 4 Norte 10 Norte 3.4 912.2 -1.7 95
2019-10-19 06:00:00 10.1 4 Nordeste 9 Nordeste 0.2 912.5 -2 94
2019-10-19 05:00:00 10.1 3 Nordeste 9 Nordeste 0.2 913.1 -2 95
2019-10-19 04:00:00 10.2 2 Sudeste 10 Norte 0.4 913.9 -1.6 94
2019-10-19 03:00:00 10.3 4 Este 6 Oeste 1.2 914.5 -1.3 94
2019-10-19 02:00:00 10.4 4 Este 13 Oeste 0.8 915.1 -1.4 93
2019-10-19 01:00:00 10.5 3 Nordeste 14 Este 0.2 915.5 -1 90
2019-10-19 00:00:00 11 8 Oeste 25 Oeste 0 915.8 -1.3 85
2019-10-18 23:00:00 11.2 9 Oeste 30 Sudoeste 0 916.5 -0.8 83
2019-10-18 22:00:00 11.8 10 Sudoeste 28 Sudoeste 0 916.5 -1 78
2019-10-18 21:00:00 12 6 Sudoeste 20 Sudoeste 0 917.1 -0.9 76
2019-10-18 20:00:00 12.2 3 Sudoeste 17 Oeste 0 917.3 -1.4 73
2019-10-18 19:00:00 12.8 7 Sudoeste 24 Sudoeste 0 917.5 -1.5 71
2019-10-18 18:00:00 13.4 9 Sudoeste 28 Sudoeste 0 918 -1.6 68
2019-10-18 17:00:00 14.1 10 Oeste 31 Oeste 0 918.7 -1.7 67
2019-10-18 16:00:00 14.4 12 Sudoeste 33 Oeste 0 919 -2.1 65
2019-10-18 15:00:00 14 9 Oeste 26 Sudoeste 0 919.6 -1.7 74
2019-10-18 14:00:00 12.5 4 Sudeste 17 Oeste 0 920.4 -0.9 79
2019-10-18 13:00:00 12.5 8 Oeste 23 Oeste 0 921.1 0 79
2019-10-18 12:00:00 11.4 5 Sudoeste 15 Oeste 0 921.3 0.5 87
2019-10-18 11:00:00 10.2 4 Sudeste 14 Norte 0 921.3 0.6 91
2019-10-18 10:00:00 9.4 5 Norte 12 Oeste 0 921.1 0.3 92
2019-10-18 09:00:00 8.8 5 Nordeste 16 Oeste 0 920.8 -0.2 93
2019-10-18 08:00:00 8.7 6 Oeste 16 Oeste 0 920.7 0.2 91
2019-10-18 07:00:00 8.8 7 Oeste 17 Oeste 0 920.8 0.1 93
2019-10-18 06:00:00 8.7 9 Oeste 17 Oeste 0 921 0 92
2019-10-18 05:00:00 8.7 6 Oeste 21 Oeste 0 920.5 -0.4 91
2019-10-18 04:00:00 8.9 11 Oeste 24 Oeste 0 920.7 0.1 89
2019-10-18 03:00:00 9.8 6 Oeste 23 Oeste 0 921 0.3 93
2019-10-18 02:00:00 10.1 8 Oeste 23 Oeste 0.2 920.9 0.2 92
2019-10-18 01:00:00 10.4 9 Oeste 26 Noroeste 0 920.6 0.2 95
2019-10-18 00:00:00 10.6 6 Oeste 22 Oeste 0 920.7 1 95
2019-10-17 23:00:00 11.1 7 Oeste 23 Noroeste 0.2 920.7 1.3 94
2019-10-17 22:00:00 12 12 Oeste 24 Noroeste 0.2 920.4 0.9 91
2019-10-17 21:00:00 13.5 6 Oeste 12 Oeste 0.2 919.7 0.4 90
2019-10-17 20:00:00 14.1 5 Noroeste 17 Oeste 0 919.4 -0.1 84
2019-10-17 19:00:00 15 5 Noroeste 24 Oeste 0 919.5 -0.2 78
2019-10-17 18:00:00 16.1 8 Oeste 33 Oeste 0 919.3 -0.8 69
2019-10-17 17:00:00 17 14 Oeste 34 Oeste 0 919.5 -1 63
2019-10-17 16:00:00 16.7 11 Oeste 40 Oeste 0 919.7 -1 61
2019-10-17 15:00:00 17.6 11 Oeste 30 Sudoeste 0 920.1 -0.8 58
2019-10-17 14:00:00 16.7 12 Sudoeste 30 Sudoeste 0 920.5 0 60
2019-10-17 13:00:00 15.9 9 Oeste 35 Oeste 0 920.7 0.8 64
2019-10-17 12:00:00 13.9 15 Oeste 42 Oeste 0 920.9 1.8 79
2019-10-17 11:00:00 12.7 14 Oeste 31 Oeste 0 920.5 1.9 91
2019-10-17 10:00:00 12.2 12 Oeste 30 Oeste 0 919.9 1.6 93
2019-10-17 09:00:00 11.9 11 Oeste 24 Oeste 0.2 919.1 1 94
2019-10-17 08:00:00 11.7 9 Oeste 26 Oeste 0 918.6 0.6 94
2019-10-17 07:00:00 11.7 4 Oeste 9 Noroeste 0 918.3 0.1 95
2019-10-17 06:00:00 11.7 4 Noroeste 11 Sur 0.2 918.1 -0.1 95
2019-10-17 05:00:00 11.7 4 Nordeste 19 Este 0 918 -0.4 94
2019-10-17 04:00:00 11.5 10 Este 22 Nordeste 0.2 918.2 -0.6 95
2019-10-17 03:00:00 11.2 8 Nordeste 18 Nordeste 0.2 918.2 -1.2 96
2019-10-17 02:00:00 11.1 5 Nordeste 11 Nordeste 1.2 918.4 -0.7 95
2019-10-17 01:00:00 11.2 5 Norte 14 Nordeste 0.8 918.8 0.5 95
2019-10-17 00:00:00 11.3 6 Nordeste 24 Noroeste 1 919.4 0.9 94
2019-10-16 23:00:00 12.1 7 Oeste 28 Sudoeste 1 919.1 0.5 89
2019-10-16 22:00:00 11.7 6 Nordeste 37 Sudoeste 0.8 918.3 -0.3 92
2019-10-16 21:00:00 11.5 5 Nordeste 40 Sudoeste 4 918.5 -0.1 93
2019-10-16 20:00:00 11.4 6 Nordeste 19 Este 0.4 918.6 -0.1 92
2019-10-16 19:00:00 12.8 11 Sur 36 Sudoeste 1.2 918.6 0.1 84
2019-10-16 18:00:00 13.8 7 Nordeste 37 Sur 0 918.6 -0.4 78
2019-10-16 17:00:00 14.9 10 Nordeste 30 Sudoeste 0 918.7 -1.1 75
2019-10-16 16:00:00 14.4 7 Nordeste 33 Sur 0 918.5 -1.7 77
2019-10-16 15:00:00 16.7 11 Sudoeste 31 Sudoeste 0 919 -1.1 63
2019-10-16 14:00:00 14.1 7 Nordeste 30 Sur 0 919.8 -0.6 77
2019-10-16 13:00:00 14.6 14 Sudoeste 45 Sudoeste 0 920.2 0 71
2019-10-16 12:00:00 11.8 6 Nordeste 23 Este 0 920.1 -0.1 86
2019-10-16 11:00:00 11.9 6 Nordeste 18 Este 0 920.4 0.1 85
2019-10-16 10:00:00 10.2 5 Sudeste 22 Sudeste 0 920.2 0 90
2019-10-16 09:00:00 9.8 10 Este 29 Sudoeste 0 920.2 -0.6 91
2019-10-16 08:00:00 9.6 6 Este 18 Este 0 920.3 -0.4 92
2019-10-16 07:00:00 9.3 8 Este 19 Este 0 920.2 -0.8 92
2019-10-16 06:00:00 9.6 5 Nordeste 17 Este 0 920.8 -0.7 90
2019-10-16 05:00:00 9.8 5 Nordeste 15 Nordeste 0 920.7 -1 87
2019-10-16 04:00:00 9.9 6 Este 15 Nordeste 0 921 -1.1 87
2019-10-16 03:00:00 10.3 6 Nordeste 21 Este 0 921.5 -0.6 82
2019-10-16 02:00:00 10.5 4 Este 10 Sudeste 0 921.7 -0.4 81
2019-10-16 01:00:00 10.7 5 Sudoeste 22 Oeste 0 922.1 0.1 79
2019-10-16 00:00:00 10.6 6 Sudoeste 26 Sudoeste 0 922.1 0 77
2019-10-15 23:00:00 10.3 7 Nordeste 26 Oeste 0 922.1 -0.2 81
2019-10-15 22:00:00 10.6 8 Sudoeste 32 Sudoeste 0 922 -0.2 78
2019-10-15 21:00:00 10.5 7 Oeste 27 Sudoeste 0 922.1 -0.3 77
2019-10-15 20:00:00 10.5 8 Sudoeste 18 Sudoeste 0 922.3 0 76
2019-10-15 19:00:00 10.5 5 Sudoeste 28 Sudoeste 0 922.2 -0.4 76
2019-10-15 18:00:00 10.6 8 Oeste 18 Noroeste 0.2 922.4 -0.5 78
2019-10-15 17:00:00 11.4 6 Sudoeste 31 Sudoeste 0 922.3 -0.8 72
2019-10-15 16:00:00 11.1 14 Sudoeste 27 Oeste 0 922.6 -0.5 78
2019-10-15 15:00:00 11.8 11 Oeste 29 Oeste 0 922.9 -0.5 74
2019-10-15 14:00:00 11.6 6 Sudoeste 31 Sudoeste 0 923.1 -0.5 73
2019-10-15 13:00:00 12.2 8 Sudoeste 28 Sudoeste 0 923.1 0.1 72
2019-10-15 12:00:00 11 10 Sudoeste 28 Oeste 0 923.4 0.7 76
2019-10-15 11:00:00 8.6 6 Sudeste 20 Sudoeste 0 923.6 1 87
2019-10-15 10:00:00 7.2 4 Sudoeste 12 Sudoeste 0 923 0.4 94
2019-10-15 09:00:00 5.8 3 Noroeste 14 Oeste 0 922.7 0.5 94
2019-10-15 08:00:00 5.7 5 Noroeste 19 Sudoeste 0 922.6 0.8 94
2019-10-15 07:00:00 6.4 9 Oeste 18 Sudoeste 0.2 922.6 0.7 94
2019-10-15 06:00:00 6.8 6 Oeste 18 Oeste 0.2 922.2 0.1 94
2019-10-15 05:00:00 6 8 Oeste 22 Oeste 0 921.8 -0.1 93
2019-10-15 04:00:00 5.8 8 Oeste 21 Noroeste 0 921.9 0.5 93
2019-10-15 03:00:00 6.4 7 Oeste 18 Oeste 0 922.1 1 92
2019-10-15 02:00:00 6.3 7 Oeste 20 Oeste 0 921.9 1 93
2019-10-15 01:00:00 6 9 Oeste 24 Oeste 0 921.4 1.3 93
2019-10-15 00:00:00 6.2 6 Oeste 17 Oeste 0 921.1 1.9 93
2019-10-14 23:00:00 6.1 10 Oeste 22 Oeste 0 920.9 2.2 93
2019-10-14 22:00:00 6.2 12 Oeste 42 Oeste 0.4 920.1 2.2 92
2019-10-14 21:00:00 6.6 17 Oeste 42 Sudoeste 0 919.2 2.3 89
2019-10-14 20:00:00 6.6 16 Oeste 35 Oeste 0 918.7 2.8 90
2019-10-14 19:00:00 7.4 10 Oeste 32 Oeste 0.6 917.9 2.4 92
2019-10-14 18:00:00 7.5 14 Oeste 60 Oeste 2.8 916.9 1.5 92
2019-10-14 17:00:00 9.8 12 Oeste 31 Oeste 0.2 915.9 1.7 85
2019-10-14 16:00:00 10 13 Oeste 34 Oeste 0.4 915.5 1.1 87
2019-10-14 15:00:00 9.1 16 Oeste 44 Oeste 1.6 915.4 1.2 86
2019-10-14 14:00:00 12.8 9 Oeste 27 Sudoeste 0 914.2 0.8 72
2019-10-14 13:00:00 9.8 4 Sudoeste 18 Oeste 0 914.4 1.9 86
2019-10-14 12:00:00 8.8 8 Oeste 28 Oeste 2 914.2 2.3 91
2019-10-14 11:00:00 8.9 4 Oeste 11 Noroeste 1.6 913.4 1.9 94
2019-10-14 10:00:00 8.6 4 Este 17 Sudeste 0 912.5 0 91
2019-10-14 09:00:00 8.4 3 Norte 9 Sur 0 911.9 -1 95
2019-10-14 08:00:00 8.3 7 Sudeste 19 Sudeste 0 911.5 -1.3 95
2019-10-14 07:00:00 8.4 7 Este 14 Sudeste 2 912.5 -0.5 95
2019-10-14 06:00:00 8.6 8 Oeste 32 Oeste 2.8 912.9 -0.6 91
2019-10-14 05:00:00 8.8 16 Oeste 30 Oeste 5.2 912.8 0.4 93
2019-10-14 04:00:00 9.2 11 Noroeste 29 Oeste 3.2 913 -0.4 94
2019-10-14 03:00:00 9.8 13 Oeste 32 Oeste 5 913.5 -0.4 93
2019-10-14 02:00:00 13.3 10 Sur 33 Sudoeste 0.2 912.4 -2.1 84
2019-10-14 01:00:00 13.4 6 Oeste 23 Oeste 0 913.4 -1 84
2019-10-14 00:00:00 13.1 4 Este 18 Noroeste 0.2 913.9 -0.5 88
2019-10-13 23:00:00 13.4 6 Norte 25 Sudeste 0 914.5 -0.2 89
2019-10-13 22:00:00 13.5 4 Sudeste 14 Nordeste 0 914.4 -0.7 91
2019-10-13 21:00:00 13.5 6 Nordeste 16 Nordeste 0 914.4 -1.2 93
2019-10-13 20:00:00 13.6 3 Este 11 Noroeste 0.2 914.7 -1.2 93
2019-10-13 19:00:00 13.8 3 Noroeste 11 Oeste 0 915.1 -1.1 92
2019-10-13 18:00:00 14 5 Oeste 13 Oeste 1.6 915.6 -0.8 93
2019-10-13 17:00:00 14.4 5 Noroeste 12 Noroeste 1.4 915.9 -1.2 91
2019-10-13 16:00:00 14.6 5 Oeste 29 Oeste 0.2 916.2 -0.8 89
2019-10-13 15:00:00 15 7 Noroeste 33 Oeste 0.2 916.4 -0.5 88
2019-10-13 14:00:00 14.1 7 Este 12 Nordeste 0.6 917.1 0.7 93
2019-10-13 13:00:00 14.2 4 Nordeste 13 Nordeste 0.6 917 1.3 93
2019-10-13 12:00:00 14 5 Nordeste 12 Noroeste 0.4 916.9 2 93
2019-10-13 11:00:00 13.6 5 Nordeste -- -- 0.4 916.4 1.6 92
2019-10-13 10:00:00 13.4 6 Este 20 Este 1.8 915.7 0.9 91
2019-10-13 09:00:00 13.2 10 Este 19 Este 0 914.9 0.3 81
2019-10-13 08:00:00 13.2 6 Sudeste 24 Sur 0 914.8 0.1 78
2019-10-13 07:00:00 13.2 5 Este 21 Noroeste 0 914.8 -0.4 76
2019-10-13 06:00:00 13.2 9 Norte 35 Sudoeste 0 914.6 -0.9 73
2019-10-13 05:00:00 13.7 15 Sudoeste 37 Sudoeste 0 914.7 -0.8 67
2019-10-13 04:00:00 12.3 7 Norte 16 Nordeste 0 915.2 -0.6 77
2019-10-13 03:00:00 12.3 6 Norte 18 Nordeste 0 915.5 -0.6 74
2019-10-13 02:00:00 13.1 4 Nordeste 33 Oeste 0 915.5 -0.4 67
2019-10-13 01:00:00 13.9 10 Sur 39 Sudoeste 0 915.8 0.1 67
2019-10-13 00:00:00 14.6 10 Sur 44 Sur 0 916.1 0.3 66
2019-10-12 23:00:00 16.2 21 Sudoeste 55 Sudoeste 0 915.9 0.2 61
2019-10-12 22:00:00 16.1 17 Sudoeste 42 Sudoeste 0 915.7 0.5 68
2019-10-12 21:00:00 16.9 13 Oeste 41 Oeste 0 915.8 0.3 66
2019-10-12 20:00:00 18.5 12 Oeste 42 Sudoeste 0 915.7 -0.3 61
2019-10-12 19:00:00 20.7 13 Sudoeste 44 Sudoeste 0 915.2 -1 49
2019-10-12 18:00:00 21.9 18 Sudoeste 48 Sudoeste 0 915.5 -1.2 44
2019-10-12 17:00:00 23.1 14 Sudoeste 42 Sudoeste 0 916 -1.4 40
2019-10-12 16:00:00 24.1 9 Sur 45 Oeste 0 916.2 -1.9 40
2019-10-12 15:00:00 23.7 21 Sudoeste 51 Sudoeste 0 916.7 -1.3 37
2019-10-12 14:00:00 23.2 14 Oeste 31 Sudoeste 0 917.4 -0.7 41
2019-10-12 13:00:00 21.9 14 Sudoeste 39 Sudoeste 0 918.1 0.2 45
2019-10-12 12:00:00 20.5 10 Noroeste 23 Noroeste 0 918 0.5 47
2019-10-12 11:00:00 17.2 7 Norte 23 Nordeste 0 918.1 0.2 69
2019-10-12 10:00:00 15 4 Este 17 Nordeste 0 917.9 0 76
2019-10-12 09:00:00 12.5 9 Nordeste 18 Este 0 917.5 -0.2 84
2019-10-12 08:00:00 12.1 3 Nordeste 12 Noroeste 0 917.9 -0.1 80
2019-10-12 07:00:00 12.1 4 Oeste 15 Sudoeste 0 917.9 -0.6 79
2019-10-12 06:00:00 13.5 6 Noroeste 16 Nordeste 0 917.7 -1.2 74
2019-10-12 05:00:00 14.2 6 Nordeste 11 Noroeste 0 918 -1.2 72
2019-10-12 04:00:00 13.9 3 Norte 11 Noroeste 0 918.5 -1.3 74
2019-10-12 03:00:00 13.9 3 Norte 12 Nordeste 0 918.9 -1.3 74
2019-10-12 02:00:00 13.8 3 Norte 11 Norte 0 919.2 -1.1 74
2019-10-12 01:00:00 13.8 2 Norte 12 Nordeste 0 919.8 -0.2 74
2019-10-12 00:00:00 13.6 7 Noroeste 13 Noroeste 0 920.2 0.5 75
2019-10-11 23:00:00 15.1 5 Oeste 16 Noroeste 0 920.3 0.5 68
2019-10-11 22:00:00 16.1 7 Noroeste 21 Sudoeste 0 920 0 64
2019-10-11 21:00:00 17.2 7 Oeste 17 Oeste 0 919.7 -0.6 60
2019-10-11 20:00:00 19.4 8 Oeste 19 Oeste 0 919.8 -0.8 51
2019-10-11 19:00:00 21.9 10 Oeste 23 Oeste 0 920 -1 45
2019-10-11 18:00:00 23.8 9 Oeste 28 Oeste 0 920.3 -1.2 39
2019-10-11 17:00:00 24.7 11 Oeste 35 Oeste 0 920.6 -1.6 37
2019-10-11 16:00:00 24.8 15 Sudoeste 40 Sudoeste 0 921 -1.9 35
2019-10-11 15:00:00 24.9 18 Sudoeste 37 Sudoeste 0 921.5 -1.7 34
2019-10-11 14:00:00 24.4 12 Sudoeste 26 Oeste 0 922.2 -1.4 34
2019-10-11 13:00:00 20.6 7 Este 13 Este 0 922.9 -0.6 44
2019-10-11 12:00:00 17.6 6 Este 12 Nordeste 0 923.2 0 50
2019-10-11 11:00:00 14.6 3 Nordeste 13 Nordeste 0 923.6 0.7 61
2019-10-11 10:00:00 11.2 6 Noroeste 12 Noroeste 0 923.5 0.6 72
2019-10-11 09:00:00 8.2 7 Noroeste 13 Noroeste 0 923.2 0.4 80
2019-10-11 08:00:00 8.2 7 Noroeste 12 Noroeste 0 922.9 -0.1 80
2019-10-11 07:00:00 8.6 6 Noroeste 12 Norte 0 922.9 -0.5 79
2019-10-11 06:00:00 8.9 7 Noroeste 15 Sudoeste 0 922.8 -0.9 79
2019-10-11 05:00:00 9.2 7 Noroeste 11 Noroeste 0 923 -0.6 80
2019-10-11 04:00:00 9.2 7 Noroeste 14 Noroeste 0 923.4 -0.6 80
2019-10-11 03:00:00 9.3 6 Noroeste 14 Oeste 0 923.7 -0.4 81
2019-10-11 02:00:00 9.8 9 Noroeste 14 Noroeste 0 923.6 -0.4 78
2019-10-11 01:00:00 9.9 8 Noroeste 12 Oeste 0 924 0.1 79
2019-10-11 00:00:00 10.6 7 Noroeste 14 Noroeste 0 924.1 0.3 77
2019-10-10 23:00:00 11.1 8 Noroeste 16 Noroeste 0 924 0.7 75
2019-10-10 22:00:00 12 8 Noroeste 13 Noroeste 0 923.9 0.6 74
2019-10-10 21:00:00 13.6 5 Oeste 11 Noroeste 0 923.8 0.3 68
2019-10-10 20:00:00 15.4 6 Noroeste 13 Noroeste 0 923.3 -0.5 62
2019-10-10 19:00:00 18.3 5 Oeste 13 Oeste 0 923.3 -1 51
2019-10-10 18:00:00 20.2 4 Noroeste 10 Noroeste 0 923.5 -1.4 44
2019-10-10 17:00:00 21 3 Nordeste 12 Noroeste 0 923.8 -1.8 41
2019-10-10 16:00:00 19.9 5 Nordeste 13 Sudeste 0 924.3 -1.8 44
2019-10-10 15:00:00 18.9 5 Nordeste 14 Este 0 924.9 -1.6 48
2019-10-10 14:00:00 17.3 7 Este 18 Nordeste 0 925.6 -1 50
2019-10-10 13:00:00 14.8 8 Este 18 Nordeste 0 926.1 -0.3 58
2019-10-10 12:00:00 12.6 7 Este 13 Este 0 926.5 0.7 67
2019-10-10 11:00:00 9.9 6 Noroeste 13 Noroeste 0 926.6 0.6 80
2019-10-10 10:00:00 7.3 7 Noroeste 12 Noroeste 0 926.4 0.7 89
2019-10-10 09:00:00 4.3 6 Noroeste 12 Noroeste 0 925.8 0 93
2019-10-10 08:00:00 4.1 8 Noroeste 12 Noroeste 0 926 0.2 93
2019-10-10 07:00:00 4.4 7 Noroeste 14 Noroeste 0 925.7 -0.3 92
2019-10-10 06:00:00 4.6 9 Noroeste 14 Noroeste 0 925.8 -0.5 92
2019-10-10 05:00:00 4.8 6 Noroeste 13 Noroeste 0 925.8 -0.7 92
2019-10-10 04:00:00 5.1 8 Noroeste 15 Noroeste 0 926 -0.8 92
2019-10-10 03:00:00 6 10 Noroeste 19 Noroeste 0 926.3 -0.3 91
2019-10-10 02:00:00 6.8 8 Noroeste 19 Noroeste 0 926.5 -0.1 91
2019-10-10 01:00:00 8.1 9 Oeste 19 Oeste 0 926.8 0.3 90
2019-10-10 00:00:00 8.4 10 Oeste 23 Oeste 0 926.6 0.4 87
2019-10-09 23:00:00 9.2 8 Oeste 17 Oeste 0 926.6 0.7 83
2019-10-09 22:00:00 9.7 8 Oeste 18 Sudoeste 0 926.5 0.7 78
2019-10-09 21:00:00 10.2 6 Sudoeste 19 Sudoeste 0 926.2 0.5 72
2019-10-09 20:00:00 12 6 Oeste 19 Noroeste 0 925.9 0.1 63
2019-10-09 19:00:00 13.7 9 Oeste 26 Oeste 0 925.8 -0.3 55
2019-10-09 18:00:00 15.3 8 Noroeste 28 Noroeste 0 925.7 -0.4 52
2019-10-09 17:00:00 16.4 11 Oeste 27 Oeste 0 925.8 -0.6 52
2019-10-09 16:00:00 16.3 13 Oeste 31 Oeste 0 926.1 -0.7 52
2019-10-09 15:00:00 16.9 10 Noroeste 22 Noroeste 0.2 926.1 -1.3 53
2019-10-09 14:00:00 16.6 5 Noroeste 17 Noroeste 0 926.4 -0.7 49
2019-10-09 13:00:00 15.1 5 Noroeste 24 Noroeste 0 926.8 -0.2 56
2019-10-09 12:00:00 13.5 8 Noroeste 16 Norte 0 927.4 1.3 65
2019-10-09 11:00:00 11.3 4 Oeste 10 Oeste 0 927.1 1.1 73
2019-10-09 10:00:00 9.8 6 Sudoeste 12 Sudoeste 0 927 1.1 88
2019-10-09 09:00:00 7.9 4 Oeste 11 Sudoeste 0 926.1 0.2 91
2019-10-09 08:00:00 8 5 Sudoeste 9 Sudoeste 0 926 0.5 94
2019-10-09 07:00:00 6.8 5 Oeste 12 Oeste 0 925.9 0 94
2019-10-09 06:00:00 6.7 5 Oeste 13 Noroeste 0 925.9 0.2 92
2019-10-09 05:00:00 7.6 4 Oeste 20 Noroeste 0 925.5 0.2 89
2019-10-09 04:00:00 9.6 8 Oeste 24 Oeste 0 925.9 0.7 90
2019-10-09 03:00:00 10.2 10 Oeste 22 Oeste 0 925.7 0.1 92
2019-10-09 02:00:00 10.1 7 Oeste 24 Oeste 0 925.3 -0.1 92
2019-10-09 01:00:00 10.7 10 Oeste 24 Oeste 0 925.2 0.4 91
2019-10-09 00:00:00 11.7 9 Oeste 28 Oeste 0.2 925.6 1.1 92
2019-10-08 23:00:00 12.5 8 Oeste 25 Oeste 0 925.4 1.3 92
2019-10-08 22:00:00 13.2 8 Oeste 26 Oeste 0.2 924.8 0.9 91
2019-10-08 21:00:00 13.9 6 Oeste 23 Oeste 0 924.5 0.8 91
2019-10-08 20:00:00 14.8 6 Oeste 22 Noroeste 0 924.1 0.5 91
2019-10-08 19:00:00 16.3 9 Oeste 19 Noroeste 0 923.9 0.1 88
2019-10-08 18:00:00 17.7 8 Oeste 24 Oeste 0 923.7 -0.4 84
2019-10-08 17:00:00 19.9 9 Noroeste 25 Noroeste 0 923.6 -0.6 77
2019-10-08 16:00:00 22.1 9 Oeste 25 Noroeste 0 923.8 -1 63
2019-10-08 15:00:00 21.2 10 Oeste 22 Oeste 0 924.1 -1.2 65
2019-10-08 14:00:00 21.8 4 Oeste 14 Oeste 0 924.2 -1.1 61
2019-10-08 13:00:00 20.2 5 Este 12 Sudeste 0 924.8 -0.4 66
2019-10-08 12:00:00 18.7 3 Este 16 Oeste 0 925.3 0.6 72
2019-10-08 11:00:00 17.2 6 Oeste 15 Oeste 0 925.3 0.8 79
2019-10-08 10:00:00 14.3 5 Noroeste 17 Oeste 0 925.2 0.9 91
2019-10-08 09:00:00 12.2 3 Noroeste 17 Noroeste 0 924.7 0.4 93
2019-10-08 08:00:00 11.4 7 Noroeste 17 Oeste 0 924.5 -0.2 86
2019-10-08 07:00:00 10.8 8 Noroeste 14 Noroeste 0 924.3 -0.9 87
2019-10-08 06:00:00 11.1 6 Noroeste 13 Oeste 0 924.3 -1.3 86
2019-10-08 05:00:00 12.1 5 Oeste 14 Oeste 0 924.7 -0.5 86
2019-10-08 04:00:00 13 6 Noroeste 15 Oeste 0 925.2 -0.4 80
2019-10-08 03:00:00 13.3 8 Oeste 21 Oeste 0 925.6 -0.2 87
2019-10-08 02:00:00 12.4 5 Noroeste 15 Noroeste 0 925.2 -0.9 82
2019-10-08 01:00:00 12.9 8 Noroeste 17 Oeste 0 925.6 -0.1 67
2019-10-08 00:00:00 13.3 7 Noroeste 18 Noroeste 0 925.8 0.2 64
2019-10-07 23:00:00 14.3 9 Noroeste 20 Oeste 0 926.1 0.7 59
2019-10-07 22:00:00 15.8 10 Oeste 21 Oeste 0 925.7 0.7 54
2019-10-07 21:00:00 17 8 Oeste 16 Oeste 0 925.6 0.4 47
2019-10-07 20:00:00 19.1 6 Oeste 18 Sudoeste 0 925.4 0 40
2019-10-07 19:00:00 21.3 7 Oeste 21 Oeste 0 925 -0.5 33
2019-10-07 18:00:00 23.1 9 Oeste 27 Oeste 0 925.2 -0.6 31
2019-10-07 17:00:00 24.4 10 Oeste 23 Oeste 0 925.4 -0.8 23
2019-10-07 16:00:00 25 10 Oeste 19 Oeste 0 925.5 -1 22
2019-10-07 15:00:00 24.7 7 Noroeste 14 Norte 0 925.8 -1.1 20
2019-10-07 14:00:00 23.5 4 Sudeste 11 Sudeste 0 926.2 -0.5 29
2019-10-07 13:00:00 20.8 5 Sudeste 11 Sudeste 0 926.5 -0.2 43
2019-10-07 12:00:00 17.5 5 Sudeste 9 Sudeste 0 926.9 0.6 46
2019-10-07 11:00:00 14.5 4 Sudeste 10 Noroeste 0 926.7 0.6 51
2019-10-07 10:00:00 11.2 4 Noroeste 11 Noroeste 0 926.7 0.9 48
2019-10-07 09:00:00 7.6 6 Noroeste 14 Noroeste 0 926.3 0.8 59
2019-10-07 08:00:00 8.3 6 Noroeste 13 Noroeste 0 926.1 0.5 50
2019-10-07 07:00:00 8.6 9 Noroeste 15 Noroeste 0 925.8 -0.1 50
2019-10-07 06:00:00 8.1 9 Noroeste 15 Noroeste 0 925.5 -0.9 58
2019-10-07 05:00:00 8.5 10 Noroeste 14 Noroeste 0 925.6 -1 65
2019-10-07 04:00:00 8.9 9 Noroeste 13 Noroeste 0 925.9 -1 71
2019-10-07 03:00:00 9.8 10 Noroeste 16 Noroeste 0 926.4 -0.6 78
2019-10-07 02:00:00 10.9 5 Oeste 19 Noroeste 0 926.6 -0.7 77
2019-10-07 01:00:00 11.4 6 Oeste 15 Oeste 0 926.9 -0.4 82
2019-10-07 00:00:00 11.6 7 Noroeste 12 Noroeste 0 927 0.4 83
2019-10-06 23:00:00 12.3 6 Noroeste 11 Oeste 0 927.3 1 79
2019-10-06 22:00:00 13.5 5 Oeste 15 Oeste 0 927.3 1 77
2019-10-06 21:00:00 14.4 7 Noroeste 17 Oeste 0 926.6 0.8 73
2019-10-06 20:00:00 16.2 7 Noroeste 21 Oeste 0 926.3 0.4 63
2019-10-06 19:00:00 18.4 10 Oeste 24 Noroeste 0 926.3 0.1 52
2019-10-06 18:00:00 20.2 10 Oeste 23 Oeste 0 925.8 -0.5 49
2019-10-06 17:00:00 21.2 9 Oeste 26 Oeste 0 925.9 -0.7 45
2019-10-06 16:00:00 21.6 10 Oeste 26 Oeste 0 926.2 -0.7 54
2019-10-06 15:00:00 21.7 9 Oeste 21 Oeste 0 926.3 -0.8 48
2019-10-06 14:00:00 20.5 7 Nordeste 15 Sudeste 0 926.6 -0.3 61
2019-10-06 13:00:00 18.9 5 Norte 10 Norte 0 926.9 0.5 68
2019-10-06 12:00:00 16.9 3 Nordeste 9 Sudeste 0 927.1 1.3 74
2019-10-06 11:00:00 14 3 Este 5 Sudeste 0 926.9 1.5 87
2019-10-06 10:00:00 11.8 3 Sur 10 Oeste 0 926.4 1 92
2019-10-06 09:00:00 10 6 Noroeste 14 Noroeste 0 925.8 0.5 93
2019-10-06 08:00:00 9.8 6 Noroeste 15 Oeste 0 925.4 0.5 94
2019-10-06 07:00:00 8.8 5 Noroeste 13 Noroeste 0 925.4 0 94
2019-10-06 06:00:00 8.6 3 Norte 13 Oeste 0 925.3 -0.5 93
2019-10-06 05:00:00 8.4 3 Oeste 12 Noroeste 0 924.9 -1.1 93
2019-10-06 04:00:00 8.8 5 Oeste 14 Noroeste 0 925.4 -0.5 91
2019-10-06 03:00:00 9.3 8 Noroeste 17 Oeste 0 925.8 0.2 91
2019-10-06 02:00:00 9.9 9 Oeste 19 Oeste 0 926 0.5 91
2019-10-06 01:00:00 9.6 5 Oeste 13 Oeste 0 925.9 1 91
2019-10-06 00:00:00 10.7 8 Oeste 17 Oeste 0 925.6 1.3 90
2019-10-05 23:00:00 11.3 4 Oeste 22 Oeste 0 925.5 1.6 87
2019-10-05 22:00:00 12.3 11 Oeste 23 Oeste 0 924.9 1.4 85
2019-10-05 21:00:00 13.3 6 Oeste 15 Oeste 0 924.3 1.1 80
2019-10-05 20:00:00 14.3 5 Oeste 19 Oeste 0 923.9 1.2 74
2019-10-05 19:00:00 16 10 Oeste 24 Oeste 0 923.5 0.8 65
2019-10-05 18:00:00 17.2 13 Oeste 30 Oeste 0 923.2 0 65
2019-10-05 17:00:00 18.8 10 Oeste 23 Noroeste 0 922.7 -0.7 64
2019-10-05 16:00:00 18.4 7 Noroeste 22 Oeste 0 922.7 -1.2 69
2019-10-05 15:00:00 17.7 12 Noroeste 25 Oeste 0 923.2 -0.6 72
2019-10-05 14:00:00 15 4 Sudeste 12 Norte 0 923.4 -0.2 79
2019-10-05 13:00:00 14.1 3 Oeste 9 Oeste 0 923.9 0.9 87
2019-10-05 12:00:00 13.1 4 Oeste 13 Noroeste 0 923.8 1.5 90
2019-10-05 11:00:00 11.3 5 Oeste 14 Oeste 0.2 923.6 1.5 94
2019-10-05 10:00:00 9.4 5 Noroeste 11 Noroeste 0 923 1 96
2019-10-05 09:00:00 9 3 Oeste 9 Noroeste 0 922.3 0.2 96
2019-10-05 08:00:00 8.4 6 Noroeste 10 Noroeste 0 922.1 -0.2 96
2019-10-05 07:00:00 7.7 6 Noroeste 14 Noroeste 0 922 -0.5 95
2019-10-05 06:00:00 7.8 9 Noroeste 14 Oeste 0 922.1 -0.7 94
2019-10-05 05:00:00 9.1 5 Oeste 18 Noroeste 0 922.3 -0.5 93
2019-10-05 04:00:00 10.1 8 Noroeste 17 Oeste 0 922.5 -0.5 96
2019-10-05 03:00:00 9.4 5 Noroeste 16 Oeste 0 922.8 -0.1 94
2019-10-05 02:00:00 9.6 6 Noroeste 13 Noroeste 0 922.8 -0.3 93
2019-10-05 01:00:00 10.5 6 Oeste 11 Oeste 0 923 -0.1 92
2019-10-05 00:00:00 11.4 6 Oeste 11 Oeste 0 922.9 -0.2 92
2019-10-04 23:00:00 12.3 5 Oeste 17 Noroeste 0 923.1 0.4 88
2019-10-04 22:00:00 13.8 6 Noroeste 16 Oeste 0 923.1 0.7 84
2019-10-04 21:00:00 14.3 5 Oeste 11 Sudoeste 0 923.1 0.7 82
2019-10-04 20:00:00 14.8 5 Oeste 18 Oeste 0 922.7 0 80
2019-10-04 19:00:00 16.4 8 Oeste 27 Noroeste 0 922.4 -0.6 72
2019-10-04 18:00:00 17.3 9 Noroeste 23 Noroeste 0 922.4 -0.8 70
2019-10-04 17:00:00 17.4 10 Oeste 25 Oeste 0 922.7 -0.9 73
2019-10-04 16:00:00 17.4 8 Noroeste 23 Oeste 0 923 -1.2 77
2019-10-04 15:00:00 18.5 8 Noroeste 19 Oeste 0 923.2 -1.2 72
2019-10-04 14:00:00 18 3 Sudeste 21 Noroeste 0 923.6 -0.7 73
2019-10-04 13:00:00 18.3 11 Noroeste 22 Noroeste 0 924.2 0.3 77
2019-10-04 12:00:00 16 10 Oeste 19 Oeste 0 924.4 0.8 89
2019-10-04 11:00:00 15.1 5 Oeste 13 Oeste 0.2 924.3 1 92
2019-10-04 10:00:00 15.1 6 Oeste 14 Oeste 0.4 923.9 0.3 93
2019-10-04 09:00:00 14.7 4 Oeste 14 Oeste 0 923.6 0 94
2019-10-04 08:00:00 14.9 5 Oeste 12 Noroeste 0 923.3 -0.3 93
2019-10-04 07:00:00 15.1 4 Oeste 10 Noroeste 0.2 923.6 -0.1 93
2019-10-04 06:00:00 15.3 4 Noroeste 8 Oeste 0 923.6 -0.5 93
2019-10-04 05:00:00 15.4 4 Noroeste 8 Oeste 0 923.6 -1.1 93
2019-10-04 04:00:00 15.5 0 Calma 8 Noroeste 0 923.7 -1.3 93
2019-10-04 03:00:00 15.5 3 Noroeste 6 Noroeste 0.2 924.1 -1.1 93
2019-10-04 02:00:00 15.6 0 Calma 4 Sudeste 0.2 924.7 -0.6 92
2019-10-04 01:00:00 15.7 2 Este 4 Sudeste 0.2 925 -0.2 92
2019-10-04 00:00:00 15.8 0 Calma 5 Sudeste 0 925.2 0 90
2019-10-03 23:00:00 15.8 0 Calma 12 Oeste 0 925.3 0.5 90
2019-10-03 22:00:00 16.1 6 Oeste 11 Noroeste 0 925.2 0.5 88
2019-10-03 21:00:00 16.8 5 Noroeste 10 Noroeste 0 925.2 0.4 82
2019-10-03 20:00:00 17.8 6 Noroeste 10 Noroeste 0 924.8 -0.2 75
2019-10-03 19:00:00 18.4 6 Oeste 17 Oeste 0 924.7 0 74
2019-10-03 18:00:00 19 7 Noroeste 25 Noroeste 0 924.8 -0.2 69
2019-10-03 17:00:00 20.7 12 Oeste 30 Oeste 0 925 -0.4 60
2019-10-03 16:00:00 21 10 Noroeste 22 Oeste 0 924.7 -1 56
2019-10-03 15:00:00 20.9 12 Noroeste 33 Norte 0 925 -0.9 52
2019-10-03 14:00:00 20.7 9 Noroeste 21 Oeste 0.2 925.4 -0.2 50
2019-10-03 13:00:00 18.4 5 Este 17 Sudeste 0 925.7 0.7 53
2019-10-03 12:00:00 17.4 6 Noroeste 16 Noroeste 0 925.9 1.3 59
2019-10-03 11:00:00 13.9 3 Este 13 Noroeste 0 925.6 0.8 68
2019-10-03 10:00:00 10.3 6 Noroeste 14 Oeste 0 925 0.1 83
2019-10-03 09:00:00 6.6 7 Noroeste 11 Oeste 0 924.6 -0.1 91
2019-10-03 08:00:00 6.6 6 Noroeste 17 Noroeste 0 924.8 0.3 90
2019-10-03 07:00:00 6.3 8 Noroeste 14 Oeste 0 924.9 0.4 91
2019-10-03 06:00:00 6.8 9 Noroeste 14 Noroeste 0 924.7 0.1 92
2019-10-03 05:00:00 6.5 8 Noroeste 13 Noroeste 0 924.5 -0.3 92
2019-10-03 04:00:00 7.2 8 Noroeste 13 Noroeste 0 924.5 -0.5 91
2019-10-03 03:00:00 7.6 9 Noroeste 14 Noroeste 0 924.6 -0.6 90
2019-10-03 02:00:00 7.7 8 Noroeste 12 Noroeste 0 924.8 -0.9 90
2019-10-03 01:00:00 8.2 7 Noroeste 12 Noroeste 0 925 -0.6 90
2019-10-03 00:00:00 9 7 Noroeste 15 Oeste 0 925.2 -0.2 86
2019-10-02 23:00:00 9.5 6 Noroeste 13 Oeste 0 925.7 0.5 85
2019-10-02 22:00:00 11.3 7 Oeste 22 Oeste 0 925.6 0.6 79
2019-10-02 21:00:00 12 8 Oeste 17 Oeste 0 925.4 0.7 76
2019-10-02 20:00:00 13.9 5 Oeste 14 Oeste 0 925.2 0.2 68
2019-10-02 19:00:00 15.8 8 Oeste 19 Norte 0 925 -0.2 59
2019-10-02 18:00:00 17.6 8 Noroeste 22 Oeste 0 924.7 -0.7 52
2019-10-02 17:00:00 18.4 12 Oeste 24 Oeste 0 925 -0.7 50
2019-10-02 16:00:00 18.2 6 Noroeste 18 Oeste 0 925.2 -1 52
2019-10-02 15:00:00 17 7 Noroeste 18 Oeste 0 925.4 -0.6 55
2019-10-02 14:00:00 16.8 6 Oeste 16 Noroeste 0 925.7 -0.1 56
2019-10-02 13:00:00 14.1 6 Oeste 13 Oeste 0 926.2 1 70
2019-10-02 12:00:00 13.5 4 Norte 13 Oeste 0 926 1.6 70
2019-10-02 11:00:00 12.6 6 Oeste 14 Oeste 0 925.8 1.6 74
2019-10-02 10:00:00 11.4 4 Oeste 14 Oeste 0 925.2 1.4 80
2019-10-02 09:00:00 9.8 8 Oeste 14 Oeste 0 924.4 0.5 85
2019-10-02 08:00:00 10.2 5 Oeste 13 Sudoeste 0 924.2 0 86
2019-10-02 07:00:00 10.2 7 Oeste 16 Oeste 0 923.8 -0.6 85
2019-10-02 06:00:00 10.7 7 Oeste 16 Oeste 0 923.9 -0.5 86
2019-10-02 05:00:00 10.9 5 Oeste 18 Oeste 0 924.2 -0.2 88
2019-10-02 04:00:00 10.9 5 Oeste 15 Oeste 0 924.4 -0.1 89
2019-10-02 03:00:00 10.7 5 Oeste 14 Oeste 0 924.4 -0.1 88
2019-10-02 02:00:00 10.2 3 Oeste 12 Sudoeste 0 924.4 0.1 89
2019-10-02 01:00:00 10 5 Oeste 14 Noroeste 0 924.5 1 87
2019-10-02 00:00:00 9.9 6 Oeste 15 Oeste 0 924.5 1.6 85
2019-10-01 23:00:00 11.4 6 Oeste 22 Oeste 0 924.3 1.6 80
2019-10-01 22:00:00 12.2 10 Oeste 26 Oeste 0 923.5 1.5 78
2019-10-01 21:00:00 13.2 12 Oeste 28 Noroeste 0 922.9 1.3 75
2019-10-01 20:00:00 14.8 10 Oeste 28 Oeste 0 922.7 1.1 67
2019-10-01 19:00:00 16.3 11 Oeste 29 Oeste 0 922 0.3 62
2019-10-01 18:00:00 17.9 11 Oeste 26 Oeste 0 921.6 -0.2 56
2019-10-01 17:00:00 18 11 Oeste 30 Sudoeste 0 921.6 -0.7 59
2019-10-01 16:00:00 19 13 Oeste 31 Oeste 0 921.7 -0.7 58
2019-10-01 15:00:00 17.8 13 Oeste 31 Noroeste 0 921.8 -0.3 60
2019-10-01 14:00:00 17 11 Oeste 27 Oeste 0 922.3 0.3 68
2019-10-01 13:00:00 17.9 12 Oeste 33 Oeste 0 922.4 1.1 68
2019-10-01 12:00:00 16 10 Noroeste 24 Oeste 0 922.1 1.3 82
2019-10-01 11:00:00 14.8 9 Oeste 21 Oeste 0 922 1.6 91
2019-10-01 10:00:00 13.6 4 Noroeste 16 Oeste 0 921.3 1.2 93
2019-10-01 09:00:00 13.5 4 Oeste 15 Noroeste 0 920.8 0.7 93
2019-10-01 08:00:00 13.5 6 Noroeste 12 Noroeste 0 920.4 0.2 88
2019-10-01 07:00:00 13.2 3 Oeste 21 Oeste 0 920.1 -0.7 86
2019-10-01 06:00:00 13.7 7 Oeste 20 Oeste 0 920.1 -1.2 85
2019-10-01 05:00:00 11.9 8 Noroeste 14 Oeste 0 920.2 -0.9 90
2019-10-01 04:00:00 13.3 3 Noroeste 23 Oeste 0 920.8 -0.2 86
2019-10-01 03:00:00 14.3 4 Noroeste 17 Oeste 0 921.3 0.2 89
2019-10-01 02:00:00 14.3 9 Oeste 21 Oeste 0 921.1 -0.1 90
2019-10-01 01:00:00 13.7 5 Noroeste 17 Oeste 0 921 -0.1 90
2019-10-01 00:00:00 14 7 Noroeste 12 Noroeste 0 921.1 0.1 89
2019-09-30 23:00:00 15 6 Noroeste 17 Oeste 0 921.2 0.3 87
2019-09-30 22:00:00 16.4 4 Sudoeste 23 Oeste 0 921.1 0.4 83
2019-09-30 21:00:00 17.6 13 Oeste 24 Oeste 0 921 0.5 80
2019-09-30 20:00:00 19.5 9 Oeste 24 Oeste 0 920.9 -0.1 72
2019-09-30 19:00:00 21.8 11 Oeste 26 Oeste 0 920.7 -0.6 63
2019-09-30 18:00:00 24.4 10 Oeste 25 Sudoeste 0 920.5 -1.3 52
2019-09-30 17:00:00 25.4 14 Oeste 31 Sudoeste 0 921 -1.5 40
2019-09-30 16:00:00 25.6 9 Oeste 24 Oeste 0 921.3 -1.7 37
2019-09-30 15:00:00 24.3 3 Nordeste 14 Norte 0 921.8 -1.8 56
2019-09-30 14:00:00 22.7 4 Nordeste 15 Sudeste 0 922.5 -1 63
2019-09-30 13:00:00 21.2 8 Este 17 Sudeste 0 923 -0.4 69
2019-09-30 12:00:00 19.9 5 Norte 12 Nordeste 0 923.6 0.4 73
2019-09-30 11:00:00 18.4 6 Este 12 Sudeste 0 923.5 0.5 81
2019-09-30 10:00:00 15.6 4 Noroeste 13 Oeste 0 923.4 0.5 92
2019-09-30 09:00:00 13.1 6 Noroeste 10 Noroeste 0 923.2 0.2 95
2019-09-30 08:00:00 13 8 Noroeste 11 Noroeste 0 923 -0.3 93
2019-09-30 07:00:00 13.8 4 Noroeste 8 Noroeste 0 922.9 -1 92
2019-09-30 06:00:00 15.2 0 Calma 5 Oeste 0 923 -1.3 92
2019-09-30 05:00:00 15.6 3 Oeste 6 Oeste 0 923.3 -1.1 92
2019-09-30 04:00:00 15.9 4 Oeste 6 Sudoeste 0 923.9 -0.9 92
2019-09-30 03:00:00 15.9 3 Sur 15 Oeste 0 924.3 -0.8 90
2019-09-30 02:00:00 16.2 0 Calma 3 Noroeste 0 924.4 -0.6 91
2019-09-30 01:00:00 16.4 0 Calma 5 Este 0 924.8 0.1 90
2019-09-30 00:00:00 16.4 0 Calma 6 Oeste 0 925.1 1 90
2019-09-29 23:00:00 16.5 4 Oeste 9 Oeste 0 925 1 90
2019-09-29 22:00:00 16.4 0 Calma 11 Noroeste 0 924.7 0.8 87
2019-09-29 21:00:00 15.9 5 Noroeste 17 Oeste 0 924.1 0.5 85
2019-09-29 20:00:00 17.1 6 Noroeste 23 Oeste 0 924 0.6 85
2019-09-29 19:00:00 18.4 8 Oeste 25 Noroeste 0 923.9 0.7 83
2019-09-29 18:00:00 19.8 9 Noroeste 26 Oeste 0 923.6 0 76
2019-09-29 17:00:00 22.4 14 Oeste 32 Sudoeste 0 923.4 -0.7 58
2019-09-29 16:00:00 24.9 14 Oeste 35 Oeste 0 923.2 -1.1 50
2019-09-29 15:00:00 24.9 10 Oeste 30 Oeste 0 923.6 -0.9 52
2019-09-29 14:00:00 23.6 9 Oeste 28 Oeste 0 924.1 -0.2 52
2019-09-29 13:00:00 21.5 5 Sudeste 14 Este 0 924.3 0.5 43
2019-09-29 12:00:00 18.4 5 Este 9 Este 0 924.5 1.2 40
2019-09-29 11:00:00 15.3 5 Sudeste 9 Este 0 924.3 1.3 50
2019-09-29 10:00:00 12.8 3 Este 8 Norte 0 923.8 0.9 45
2019-09-29 09:00:00 9.4 3 Nordeste 15 Noroeste 0 923.3 0.4 61
2019-09-29 08:00:00 8.5 7 Noroeste 18 Noroeste 0 923 -0.4 55
2019-09-29 07:00:00 7.9 10 Noroeste 16 Noroeste 0 922.9 -0.6 53
2019-09-29 06:00:00 9 6 Oeste 14 Oeste 0 922.9 -0.9 48
2019-09-29 05:00:00 9.6 8 Oeste 16 Oeste 0 923.4 -0.3 46
2019-09-29 04:00:00 8.2 8 Noroeste 15 Oeste 0 923.5 -0.6 60
2019-09-29 03:00:00 9.3 7 Noroeste 17 Oeste 0 923.8 -0.7 61
2019-09-29 02:00:00 10.1 8 Noroeste 15 Noroeste 0 923.7 -0.5 72
2019-09-29 01:00:00 11 8 Noroeste 17 Noroeste 0 924.1 0.3 73
2019-09-29 00:00:00 11.6 8 Noroeste 18 Noroeste 0 924.5 1 72
2019-09-28 23:00:00 13.5 10 Oeste 19 Oeste 0 924.2 0.7 67
2019-09-28 22:00:00 14.4 8 Noroeste 16 Oeste 0 923.8 0.2 71
2019-09-28 21:00:00 15.5 7 Noroeste 14 Oeste 0 923.5 -0.1 70
2019-09-28 20:00:00 18.7 7 Oeste 12 Oeste 0 923.5 -0.2 55
2019-09-28 19:00:00 20.8 4 Oeste 13 Oeste 0 923.6 -0.5 39
2019-09-28 18:00:00 23.3 7 Oeste 17 Oeste 0 923.6 -0.9 31
2019-09-28 17:00:00 23.3 4 Norte 15 Noroeste 0 923.7 -1.6 36
2019-09-28 16:00:00 22.8 4 Noroeste 14 Noroeste 0 924.1 -1.9 25
2019-09-28 15:00:00 21.1 5 Norte 13 Sudeste 0 924.5 -2 30
2019-09-28 14:00:00 19 6 Este 15 Este 0 925.3 -1.2 48
2019-09-28 13:00:00 16.3 5 Este 12 Nordeste 0 926 0 57
2019-09-28 12:00:00 12.7 3 Nordeste 11 Este 0 926.5 0.9 77
2019-09-28 11:00:00 9.7 4 Nordeste 10 Este 0 926.5 1.1 92
2019-09-28 10:00:00 7.9 4 Noroeste 13 Noroeste 0 926 0.6 92
2019-09-28 09:00:00 6.8 9 Noroeste 13 Noroeste 0 925.6 0 91
2019-09-28 08:00:00 7.3 8 Noroeste 12 Noroeste 0 925.4 -0.3 92
2019-09-28 07:00:00 8 8 Noroeste 13 Noroeste 0 925.4 -0.5 94
2019-09-28 06:00:00 8.1 7 Noroeste 13 Noroeste 0 925.6 -0.5 95
2019-09-28 05:00:00 7.1 4 Oeste 13 Oeste 0 925.7 -0.6 94
2019-09-28 04:00:00 7.3 6 Noroeste 12 Oeste 0 925.9 -0.4 93
2019-09-28 03:00:00 7.6 7 Noroeste 13 Noroeste 0 926.1 -0.3 92
2019-09-28 02:00:00 8.2 7 Noroeste 14 Oeste 0 926.3 -0.1 92
2019-09-28 01:00:00 9.3 6 Noroeste 13 Oeste 0 926.3 -0.1 91
2019-09-28 00:00:00 10.2 5 Oeste 16 Noroeste 0 926.4 0.4 90
2019-09-27 23:00:00 11.2 5 Oeste 12 Oeste 0 926.4 0.6 88
2019-09-27 22:00:00 12.3 6 Oeste 11 Oeste 0 926.4 0.9 86
2019-09-27 21:00:00 13.1 6 Oeste 16 Oeste 0 926 0.5 82
2019-09-27 20:00:00 15.1 6 Oeste 22 Oeste 0 925.8 0.2 76
2019-09-27 19:00:00 17 12 Oeste 27 Oeste 0 925.5 -0.3 70
2019-09-27 18:00:00 18.8 12 Oeste 32 Oeste 0 925.5 -0.4 64
2019-09-27 17:00:00 19.1 11 Oeste 29 Oeste 0 925.6 -0.5 66
2019-09-27 16:00:00 17.4 11 Oeste 24 Oeste 0 925.8 -0.2 76
2019-09-27 15:00:00 16.8 11 Oeste 26 Oeste 0 925.9 0.1 85
2019-09-27 14:00:00 16.9 6 Noroeste 14 Norte 0 926.1 0.2 90
2019-09-27 13:00:00 16.3 3 Nordeste 11 Sudeste 0 926 0.5 83
2019-09-27 12:00:00 16.3 6 Este 10 Este 0 925.8 0.6 81
2019-09-27 11:00:00 13.6 2 Sudeste 6 Noroeste 0 925.9 0.9 84
2019-09-27 10:00:00 12.5 5 Noroeste 9 Noroeste 0 925.5 0.6 90
2019-09-27 09:00:00 10.6 4 Oeste 8 Noroeste 0 925.2 0.2 89
2019-09-27 08:00:00 9.5 4 Noroeste 9 Norte 0 925 -0.1 90
2019-09-27 07:00:00 8.8 3 Este 16 Oeste 0 924.9 -0.8 89
2019-09-27 06:00:00 7.6 7 Noroeste 14 Noroeste 0 925 -1 91
2019-09-27 05:00:00 7.5 9 Noroeste 14 Noroeste 0 925.1 -1.3 89
2019-09-27 04:00:00 8.4 6 Noroeste 12 Noroeste 0 925.7 -0.9 88
2019-09-27 03:00:00 9.5 5 Oeste 19 Oeste 0 926 -0.1 88
2019-09-27 02:00:00 11.7 5 Oeste 13 Oeste 0 926.4 0.3 86
2019-09-27 01:00:00 11.2 5 Noroeste 15 Oeste 0 926.6 1.2 90
2019-09-27 00:00:00 11.9 7 Oeste 22 Oeste 0 926.1 1.2 86
2019-09-26 23:00:00 12.5 13 Oeste 29 Oeste 0 926.1 1.4 85
2019-09-26 22:00:00 13.5 10 Oeste 21 Oeste 0 925.4 1 78
2019-09-26 21:00:00 14.4 11 Oeste 30 Noroeste 0 924.9 0.4 71
2019-09-26 20:00:00 16.7 10 Oeste 21 Oeste 0 924.7 0.2 61
2019-09-26 19:00:00 18.8 12 Oeste 24 Oeste 0 924.4 0 50
2019-09-26 18:00:00 21.3 10 Oeste 31 Noroeste 0 924.5 -0.1 44
2019-09-26 17:00:00 21.4 12 Oeste 27 Oeste 0 924.5 -0.5 45
2019-09-26 16:00:00 21.9 10 Noroeste 22 Oeste 0 924.4 -1.2 43
2019-09-26 15:00:00 21.1 8 Noroeste 17 Noroeste 0 924.6 -0.8 48
2019-09-26 14:00:00 20.2 6 Noroeste 18 Noroeste 0 925 -0.3 52
2019-09-26 13:00:00 18.2 6 Noroeste 19 Oeste 0 925.6 0.7 57
2019-09-26 12:00:00 15.4 3 Este 9 Noroeste 0 925.4 0.8 66
2019-09-26 11:00:00 12.8 4 Oeste 12 Oeste 0 925.3 1 78
2019-09-26 10:00:00 9.9 5 Noroeste 13 Noroeste 0 924.9 0.6 91
2019-09-26 09:00:00 7.8 8 Noroeste 16 Noroeste 0 924.6 0.2 91
2019-09-26 08:00:00 7.1 9 Noroeste 15 Noroeste 0 924.3 -0.2 92
2019-09-26 07:00:00 7.8 7 Oeste 13 Noroeste 0 924.3 -0.4 91
2019-09-26 06:00:00 8.2 7 Noroeste 13 Oeste 0 924.4 -0.5 90
2019-09-26 05:00:00 8.9 4 Oeste 9 Oeste 0 924.5 -0.6 89
2019-09-26 04:00:00 10 4 Oeste 13 Sudoeste 0 924.7 -0.7 84
2019-09-26 03:00:00 11.4 6 Oeste 19 Oeste 0 924.9 -0.2 82
2019-09-26 02:00:00 11.5 9 Oeste 17 Oeste 0 925.1 0 84
2019-09-26 01:00:00 10.8 5 Oeste 15 Oeste 0 925.4 0.8 86
2019-09-26 00:00:00 12.1 9 Oeste 18 Oeste 0 925.1 0.6 83
2019-09-25 23:00:00 12.5 6 Oeste 15 Oeste 0 925.1 0.7 83
2019-09-25 22:00:00 13 6 Oeste 14 Oeste 0 924.6 0.1 79
2019-09-25 21:00:00 14.1 4 Oeste 17 Oeste 0 924.5 0.2 74
2019-09-25 20:00:00 14.9 5 Oeste 16 Oeste 0 924.4 -0.1 71
2019-09-25 19:00:00 15.7 7 Oeste 20 Noroeste 0 924.5 -0.3 67
2019-09-25 18:00:00 17.2 9 Oeste 25 Oeste 0 924.3 -0.7 60
2019-09-25 17:00:00 17.3 9 Oeste 25 Noroeste 0 924.5 -0.7 61
2019-09-25 16:00:00 17.2 8 Oeste 24 Oeste 0 924.8 -0.7 60
2019-09-25 15:00:00 17.7 10 Oeste 28 Noroeste 0 925 -0.5 55
2019-09-25 14:00:00 17.6 9 Oeste 22 Oeste 0 925.2 -0.1 56
2019-09-25 13:00:00 16.9 12 Oeste 23 Oeste 0 925.5 0.7 59
2019-09-25 12:00:00 15.5 8 Noroeste 20 Noroeste 0 925.5 0.8 71
2019-09-25 11:00:00 14.3 6 Noroeste 17 Oeste 0 925.3 1 74
2019-09-25 10:00:00 12.6 3 Oeste 12 Sudoeste 0 924.8 0.6 80
2019-09-25 09:00:00 10.7 8 Oeste 18 Oeste 0 924.7 0.3 89
2019-09-25 08:00:00 10.2 5 Oeste 10 Oeste 0 924.3 0 89
2019-09-25 07:00:00 10.5 3 Noroeste 6 Oeste 0 924.2 -0.3 86
2019-09-25 06:00:00 10.7 3 Noroeste 7 Noroeste 0 924.4 -0.1 86
2019-09-25 05:00:00 11.1 3 Oeste 18 Oeste 0 924.3 0 83
2019-09-25 04:00:00 11.3 5 Oeste 17 Oeste 0 924.5 -0.2 83
2019-09-25 03:00:00 11.1 8 Oeste 18 Oeste 0 924.5 -0.2 83
2019-09-25 02:00:00 10.8 6 Oeste 18 Oeste 0 924.3 -0.5 84
2019-09-25 01:00:00 10.6 8 Oeste 18 Oeste 0 924.7 0.2 85
2019-09-25 00:00:00 10.1 8 Oeste 18 Oeste 0 924.7 0.9 85
2019-09-24 23:00:00 11.2 5 Oeste 26 Oeste 0 924.8 1.4 80
2019-09-24 22:00:00 12.5 9 Oeste 23 Oeste 0 924.5 1.3 82
2019-09-24 21:00:00 12.9 11 Oeste 36 Noroeste 0 923.8 1 75
2019-09-24 20:00:00 14.6 12 Oeste 34 Oeste 0 923.4 0.5 69
2019-09-24 19:00:00 15.7 14 Oeste 48 Oeste 0 923.2 0.4 68
2019-09-24 18:00:00 17.7 20 Oeste 43 Oeste 0 922.8 0 57
2019-09-24 17:00:00 18.9 16 Oeste 42 Oeste 0 922.9 -0.1 57
2019-09-24 16:00:00 19.7 16 Oeste 38 Sudoeste 0 922.8 -0.2 55
2019-09-24 15:00:00 19.2 16 Oeste 38 Oeste 0 922.8 -0.2 60
2019-09-24 14:00:00 19.8 16 Oeste 38 Oeste 0 923 0.4 63
2019-09-24 13:00:00 18.5 14 Oeste 30 Oeste 0 923 1 78
2019-09-24 12:00:00 17.1 8 Oeste 22 Oeste 0 923 1.3 89
2019-09-24 11:00:00 16 4 Oeste 14 Oeste 0 922.6 1 94
2019-09-24 10:00:00 14.5 3 Sudeste 10 Nordeste 0 922 0.7 93
2019-09-24 09:00:00 13.6 4 Nordeste 13 Este 0 921.7 0.3 94
2019-09-24 08:00:00 13.3 6 Nordeste 15 Nordeste 0 921.6 0.3 93
2019-09-24 07:00:00 13.1 4 Nordeste 16 Sudeste 0 921.3 -0.6 91
2019-09-24 06:00:00 13.2 6 Sudeste 18 Este 0 921.4 -1.1 86
2019-09-24 05:00:00 13.1 6 Norte 21 Sudeste 0 921.3 -1.2 85
2019-09-24 04:00:00 13 9 Sudeste 25 Sudeste 0 921.9 -0.9 82
2019-09-24 03:00:00 13.7 6 Sudeste 21 Este 0 922.5 -0.9 81
2019-09-24 02:00:00 13.5 8 Este 24 Este 0 922.5 -1.1 81
2019-09-24 01:00:00 14.1 8 Este 21 Este 0 922.8 -0.8 78
2019-09-24 00:00:00 14.7 9 Este 21 Nordeste 0 923.4 0 78
2019-09-23 23:00:00 15 3 Este 10 Nordeste 0 923.6 0.3 77
2019-09-23 22:00:00 15.7 4 Sudeste 9 Noroeste 0 923.6 0 76
2019-09-23 21:00:00 16.5 4 Oeste 12 Oeste 0 923.4 -0.2 72
2019-09-23 20:00:00 17.2 3 Sudoeste 6 Oeste 0 923.3 -0.4 69
2019-09-23 19:00:00 17.5 4 Oeste 9 Nordeste 0 923.6 -0.2 67
2019-09-23 18:00:00 17.8 4 Este 8 Norte 0 923.6 -0.4 62
2019-09-23 17:00:00 17.2 3 Norte 9 Nordeste 0 923.7 -0.6 64
2019-09-23 16:00:00 16.6 5 Este 11 Este 0 923.8 -0.7 67
2019-09-23 15:00:00 16.7 5 Nordeste 14 Nordeste 0 924 -0.7 64
2019-09-23 14:00:00 16.3 5 Este 12 Este 0 924.3 -0.3 67
2019-09-23 13:00:00 15 8 Este 14 Este 0 924.5 0.1 70
2019-09-23 12:00:00 14.6 7 Este 14 Este 0 924.7 1.2 75
2019-09-23 11:00:00 12.2 6 Este 12 Este 0 924.6 1.5 81
2019-09-23 10:00:00 10.6 -- -- -- -- 0 924.4 1.1 88
2019-09-23 09:00:00 9.2 5 Noroeste 10 Noroeste 0 923.5 -0.1 89
2019-09-23 08:00:00 9 2 Oeste 9 Oeste 0 923.1 -0.4 89
2019-09-23 07:00:00 8.7 4 Oeste 5 Oeste 0 923.3 0.1 89
2019-09-23 06:00:00 8.2 3 Noroeste 10 Noroeste 0 923.6 0.4 91
2019-09-23 05:00:00 8.2 3 Oeste 8 Noroeste 0 923.5 0.2 89
2019-09-23 04:00:00 8.5 3 Oeste 10 Oeste 0 923.2 0 88
2019-09-23 03:00:00 8.7 8 Noroeste 13 Noroeste 0 923.2 0.1 87
2019-09-23 02:00:00 8.9 6 Noroeste 10 Noroeste 0 923.3 0.4 86
2019-09-23 01:00:00 9.6 5 Noroeste 15 Oeste 0 923.2 0.9 83
2019-09-23 00:00:00 10.2 7 Oeste 12 Oeste 0 923.1 1.1 82
2019-09-22 23:00:00 10.5 4 Nordeste 21 Sudoeste 0 922.9 1.4 84
2019-09-22 22:00:00 11.7 14 Oeste 26 Oeste 0 922.3 1.1 81
2019-09-22 21:00:00 13 10 Oeste 24 Oeste 0 922 1.2 76
2019-09-22 20:00:00 14.9 11 Oeste 26 Oeste 0 921.5 1.2 66
2019-09-22 19:00:00 16.2 10 Oeste 26 Oeste 0 921.2 0.7 61
2019-09-22 18:00:00 17.5 7 Oeste 27 Sudoeste 0 920.8 0.7 56
2019-09-22 17:00:00 18.4 10 Oeste 23 Oeste 0 920.3 0.1 48
2019-09-22 16:00:00 17.9 10 Oeste 28 Oeste 0 920.5 0.3 54
2019-09-22 15:00:00 19.1 14 Oeste 31 Oeste 0 920.1 0 47
2019-09-22 14:00:00 18.2 12 Oeste 32 Sudoeste 0 920.2 0.6 50
2019-09-22 13:00:00 18 11 Oeste 31 Oeste 0 920.2 1.3 54
2019-09-22 12:00:00 15.4 13 Oeste 27 Sudoeste 0 920.1 2 60
2019-09-22 11:00:00 14.2 8 Oeste 22 Oeste 0 919.6 1.8 67
2019-09-22 10:00:00 11.7 5 Sudoeste 21 Oeste 0 918.9 1.9 77
2019-09-22 09:00:00 9.3 9 Oeste 24 Oeste 0 918.1 1.7 87
2019-09-22 08:00:00 9.6 10 Oeste 21 Oeste 0 917.8 1.8 84
2019-09-22 07:00:00 9.8 9 Noroeste 19 Noroeste 0 917 1.2 91
2019-09-22 06:00:00 10.3 9 Noroeste 23 Oeste 0 916.4 0.7 89
2019-09-22 05:00:00 10.6 3 Nordeste 12 Sudoeste 0 916 0.7 90
2019-09-22 04:00:00 11.5 4 Sudoeste 34 Sudoeste 0 915.8 0.5 91
2019-09-22 03:00:00 11.7 10 Oeste 19 Sudoeste 0 915.7 0.6 86
2019-09-22 02:00:00 11.6 9 Oeste 28 Sudoeste 0 915.3 0.4 83
2019-09-22 01:00:00 11 8 Oeste 20 Sudoeste 0 915.3 1.2 85
2019-09-22 00:00:00 10.3 3 Norte 14 Norte 0 915.1 1.6 89